Time;durP1;ratioP1;P1;durP2;ratioP2;P2;SDS_P1;SDS_P2;PMS_P1;PMS_P2;Temp;Humidity;BMP_temperature;BMP_pressure;BME280_temperature;BME280_humidity;BME280_pressure;Samples;Min_cycle;Max_cycle;Signal;HPM_P1;HPM_P2
2021/11/26 05:01:46;;;;;;;65.97;41.00;;;2.50;99.90;;;;;;5362891;23;20490;-66
2021/11/26 05:04:13;;;;;;;73.13;43.03;;;2.60;99.90;;;;;;4977082;28;20506;-65
2021/11/26 05:06:39;;;;;;;73.37;42.27;;;2.60;99.90;;;;;;4976957;28;20455;-66
2021/11/26 05:09:08;;;;;;;66.37;41.90;;;2.60;99.90;;;;;;4976470;28;20961;-66
2021/11/26 05:11:35;;;;;;;70.50;43.20;;;2.70;99.90;;;;;;4976744;28;20477;-66
2021/11/26 05:14:04;;;;;;;75.30;42.70;;;2.70;99.90;;;;;;4977999;28;20685;-66
2021/11/26 05:16:31;;;;;;;66.10;42.00;;;2.70;99.90;;;;;;4976965;28;20457;-66
2021/11/26 05:19:00;;;;;;;67.87;40.67;;;2.70;99.90;;;;;;4977044;28;20459;-66
2021/11/26 05:21:26;;;;;;;72.87;41.67;;;2.70;99.90;;;;;;4976557;28;20470;-66
2021/11/26 05:23:54;;;;;;;68.70;40.27;;;2.70;99.90;;;;;;4976793;28;20454;-66
2021/11/26 05:26:21;;;;;;;80.03;44.83;;;2.80;99.90;;;;;;4976440;28;20549;-66
2021/11/26 05:28:47;;;;;;;75.87;42.70;;;2.80;99.90;;;;;;4976435;28;20827;-67
2021/11/26 05:31:14;;;;;;;66.40;40.77;;;2.80;99.90;;;;;;4976758;28;20529;-64
2021/11/26 05:33:41;;;;;;;72.03;44.40;;;2.90;99.90;;;;;;4976785;28;20451;-65
2021/11/26 05:36:09;;;;;;;62.73;40.30;;;2.90;99.90;;;;;;4976192;28;20455;-67
2021/11/26 05:38:36;;;;;;;63.33;40.30;;;3.00;99.90;;;;;;4976625;28;20505;-67
2021/11/26 05:41:02;;;;;;;69.47;41.43;;;3.00;99.90;;;;;;4976964;28;20506;-65
2021/11/26 05:43:29;;;;;;;67.20;41.77;;;3.00;99.90;;;;;;4976052;28;21040;-67
2021/11/26 05:45:56;;;;;;;74.00;43.67;;;2.90;99.90;;;;;;4976059;28;20455;-66
2021/11/26 05:48:22;;;;;;;71.47;44.57;;;2.90;99.90;;;;;;4976119;28;20463;-66
2021/11/26 05:50:49;;;;;;;72.43;44.20;;;2.90;99.90;;;;;;4976964;28;20483;-67
2021/11/26 05:53:17;;;;;;;70.37;42.90;;;2.90;99.90;;;;;;4976582;28;20455;-66
2021/11/26 05:55:44;;;;;;;74.13;40.03;;;2.90;99.90;;;;;;4976134;28;20846;-66
2021/11/26 05:58:11;;;;;;;72.47;43.33;;;3.00;99.90;;;;;;4980674;28;20460;-65
2021/11/26 06:00:37;;;;;;;73.57;43.10;;;3.10;99.90;;;;;;4989691;28;20506;-66
2021/11/26 06:03:04;;;;;;;77.13;46.23;;;3.30;99.90;;;;;;4979426;28;20522;-65
2021/11/26 06:05:31;;;;;;;66.03;40.87;;;3.30;99.90;;;;;;4976523;28;20459;-65
2021/11/26 06:07:59;;;;;;;70.33;41.40;;;3.40;99.90;;;;;;4976230;28;20463;-65
2021/11/26 06:10:27;;;;;;;66.40;39.93;;;3.50;99.90;;;;;;4976093;28;20502;-66
2021/11/26 06:12:54;;;;;;;64.10;37.93;;;3.60;99.90;;;;;;4976206;28;20463;-65
2021/11/26 06:15:23;;;;;;;62.10;36.37;;;3.80;99.90;;;;;;4975964;28;20455;-65
2021/11/26 06:17:50;;;;;;;61.10;37.60;;;3.90;99.90;;;;;;4976033;28;20455;-65
2021/11/26 06:20:18;;;;;;;63.43;38.77;;;4.00;99.90;;;;;;4976305;28;20448;-66
2021/11/26 06:22:44;;;;;;;61.37;38.37;;;4.10;99.90;;;;;;4976388;28;20479;-67
2021/11/26 06:25:13;;;;;;;57.87;37.07;;;4.00;99.90;;;;;;4976090;28;20454;-66
2021/11/26 06:27:41;;;;;;;64.00;36.53;;;4.00;99.90;;;;;;4975850;28;20455;-66
2021/11/26 06:30:12;;;;;;;62.00;38.43;;;4.00;99.90;;;;;;4975571;28;20443;-66
2021/11/26 06:32:39;;;;;;;60.73;34.83;;;3.90;99.90;;;;;;4975792;28;20502;-65
2021/11/26 06:35:06;;;;;;;65.57;39.57;;;3.80;99.90;;;;;;4975615;28;20466;-66
2021/11/26 06:37:34;;;;;;;60.20;37.30;;;3.70;99.90;;;;;;4975616;28;20455;-65
2021/11/26 06:40:00;;;;;;;61.80;38.27;;;3.60;99.90;;;;;;4976474;28;20455;-66
2021/11/26 06:42:27;;;;;;;62.87;39.67;;;3.50;99.90;;;;;;4975313;28;20533;-66
2021/11/26 06:44:55;;;;;;;71.70;41.47;;;3.50;99.90;;;;;;4975843;28;20463;-66
2021/11/26 06:47:22;;;;;;;70.70;40.73;;;3.40;99.90;;;;;;4976708;28;20459;-66
2021/11/26 06:49:49;;;;;;;68.90;41.10;;;3.30;99.90;;;;;;4977917;28;20462;-66
2021/11/26 06:52:16;;;;;;;73.80;42.10;;;3.10;99.90;;;;;;4975783;28;20479;-66
2021/11/26 06:54:43;;;;;;;80.03;43.97;;;3.00;99.90;;;;;;4975779;28;20511;-67
2021/11/26 06:57:10;;;;;;;80.33;46.20;;;2.90;99.90;;;;;;4975482;28;20459;-67
2021/11/26 06:59:37;;;;;;;77.30;44.07;;;2.80;99.90;;;;;;4975701;28;20486;-67
2021/11/26 07:02:05;;;;;;;74.80;43.87;;;2.90;99.90;;;;;;4977095;28;20891;-65
2021/11/26 07:04:32;;;;;;;73.00;43.43;;;2.90;99.90;;;;;;4977185;28;20459;-67
2021/11/26 07:06:59;;;;;;;73.60;42.47;;;2.90;99.90;;;;;;4975549;28;20462;-66
2021/11/26 07:09:26;;;;;;;68.60;41.60;;;3.00;99.90;;;;;;4975360;28;20961;-66
2021/11/26 07:11:53;;;;;;;67.90;42.97;;;2.90;99.90;;;;;;4976366;28;20479;-66
2021/11/26 07:14:19;;;;;;;69.30;41.97;;;3.00;99.90;;;;;;4979370;28;20490;-66
2021/11/26 07:16:46;;;;;;;73.43;42.50;;;3.00;99.90;;;;;;4978550;28;20962;-67
2021/11/26 07:19:14;;;;;;;74.63;42.07;;;3.10;99.90;;;;;;4979120;28;20580;-67
2021/11/26 07:21:41;;;;;;;70.07;41.00;;;3.10;99.90;;;;;;4978900;28;20876;-67
2021/11/26 07:24:08;;;;;;;73.40;41.63;;;3.10;99.90;;;;;;4978758;28;20482;-66
2021/11/26 07:26:34;;;;;;;73.23;42.47;;;3.10;99.90;;;;;;4979191;28;20486;-66
2021/11/26 07:29:01;;;;;;;70.07;41.53;;;3.10;99.90;;;;;;4978695;28;20458;-66
2021/11/26 07:31:28;;;;;;;71.80;40.63;;;3.10;99.90;;;;;;4978757;28;20474;-67
2021/11/26 07:33:55;;;;;;;67.77;40.73;;;3.10;99.90;;;;;;4979120;28;20439;-66
2021/11/26 07:36:23;;;;;;;74.90;43.60;;;3.20;99.90;;;;;;4978778;28;20443;-66
2021/11/26 07:38:49;;;;;;;62.90;38.47;;;3.20;99.90;;;;;;4978711;28;20454;-66
2021/11/26 07:41:16;;;;;;;69.60;41.40;;;3.10;99.90;;;;;;4978613;28;20888;-66
2021/11/26 07:43:43;;;;;;;62.03;39.20;;;3.30;99.90;;;;;;4978941;28;20463;-67
2021/11/26 07:46:09;;;;;;;64.80;39.80;;;3.30;99.90;;;;;;4978851;28;20443;-67
2021/11/26 07:48:36;;;;;;;72.33;41.47;;;3.30;99.90;;;;;;4978338;28;20993;-67
2021/11/26 07:51:03;;;;;;;62.13;38.67;;;3.30;99.90;;;;;;4978177;28;20525;-67
2021/11/26 07:53:32;;;;;;;62.43;39.40;;;3.40;99.90;;;;;;4978744;28;20450;-65
2021/11/26 07:55:59;;;;;;;68.00;37.40;;;3.40;99.90;;;;;;4978449;28;20453;-67
2021/11/26 07:58:25;;;;;;;71.40;41.43;;;3.30;99.90;;;;;;4979265;28;20443;-65
2021/11/26 08:00:53;;;;;;;66.20;40.37;;;3.40;99.90;;;;;;4978259;28;20490;-67
2021/11/26 08:03:21;;;;;;;62.60;38.07;;;3.40;99.90;;;;;;4978686;28;20471;-67
2021/11/26 08:05:48;;;;;;;61.90;35.00;;;3.50;99.90;;;;;;4978797;28;20455;-66
2021/11/26 08:08:15;;;;;;;59.20;37.50;;;3.50;99.90;;;;;;4978599;28;20513;-67
2021/11/26 08:10:43;;;;;;;63.70;38.03;;;3.50;99.90;;;;;;4977970;28;20478;-67
2021/11/26 08:13:10;;;;;;;60.70;36.50;;;3.50;99.90;;;;;;4978152;28;20450;-67
2021/11/26 08:15:38;;;;;;;59.73;37.30;;;3.50;99.90;;;;;;4978370;28;20514;-66
2021/11/26 08:18:06;;;;;;;59.67;36.23;;;3.50;99.90;;;;;;4978162;28;20919;-66
2021/11/26 08:20:34;;;;;;;71.80;40.87;;;3.50;99.90;;;;;;4977768;28;20970;-66
2021/11/26 08:23:01;;;;;;;68.50;40.93;;;3.40;99.90;;;;;;4977038;28;20498;-67
2021/11/26 08:25:28;;;;;;;63.33;40.07;;;3.30;99.90;;;;;;4977936;28;20514;-66
2021/11/26 08:27:57;;;;;;;67.57;40.90;;;3.30;99.90;;;;;;4978340;28;20443;-65
2021/11/26 08:30:24;;;;;;;67.17;39.20;;;3.30;99.90;;;;;;4978018;28;20459;-67
2021/11/26 08:32:52;;;;;;;63.50;38.80;;;3.30;99.90;;;;;;4978247;28;20451;-66
2021/11/26 08:35:20;;;;;;;63.40;36.70;;;3.30;99.90;;;;;;4977443;28;20475;-67
2021/11/26 08:37:47;;;;;;;67.57;39.10;;;3.30;99.90;;;;;;4977474;28;20863;-67
2021/11/26 08:40:14;;;;;;;69.07;40.20;;;3.40;99.90;;;;;;4977815;28;20797;-68
2021/11/26 08:42:41;;;;;;;67.93;39.10;;;3.40;99.90;;;;;;4977471;28;20501;-67
2021/11/26 08:45:11;;;;;;;67.60;40.83;;;3.30;99.90;;;;;;4977853;28;20968;-67
2021/11/26 08:47:38;;;;;;;68.80;39.57;;;3.40;99.90;;;;;;4978285;28;20445;-67
2021/11/26 08:50:08;;;;;;;63.27;38.10;;;3.40;99.90;;;;;;4977427;28;20513;-67
2021/11/26 08:52:35;;;;;;;64.87;40.00;;;3.30;99.90;;;;;;4977432;28;20475;-67
2021/11/26 08:55:03;;;;;;;65.60;38.43;;;3.30;99.90;;;;;;4977337;28;20483;-67
2021/11/26 08:57:31;;;;;;;61.80;36.63;;;3.20;99.90;;;;;;4977422;28;20447;-67
2021/11/26 08:59:58;;;;;;;61.37;36.70;;;3.20;99.90;;;;;;4977434;28;20534;-67
2021/11/26 09:02:26;;;;;;;65.67;38.13;;;3.20;99.90;;;;;;4976777;28;20501;-67
2021/11/26 09:04:52;;;;;;;69.23;41.07;;;3.20;99.90;;;;;;4976802;28;20479;-67
2021/11/26 09:07:19;;;;;;;63.40;37.20;;;3.30;99.90;;;;;;4976612;28;20466;-67
2021/11/26 09:09:46;;;;;;;70.70;39.70;;;3.30;99.90;;;;;;4976973;28;20448;-67
2021/11/26 09:12:12;;;;;;;69.90;40.50;;;3.40;99.90;;;;;;4977062;28;20531;-67
2021/11/26 09:14:39;;;;;;;61.23;36.77;;;3.40;99.90;;;;;;4976733;28;20466;-68
2021/11/26 09:17:06;;;;;;;67.97;37.63;;;3.40;99.90;;;;;;4976498;28;20466;-68
2021/11/26 09:19:35;;;;;;;60.17;37.03;;;3.30;99.90;;;;;;4976848;28;20997;-68
2021/11/26 09:22:02;;;;;;;64.80;37.73;;;3.30;99.90;;;;;;4976576;28;20482;-67
2021/11/26 09:24:29;;;;;;;60.17;38.53;;;3.20;99.90;;;;;;4976490;28;20897;-65
2021/11/26 09:26:56;;;;;;;59.97;35.70;;;3.50;99.90;;;;;;4975942;28;20867;-65
2021/11/26 09:29:22;;;;;;;56.10;34.40;;;3.90;99.90;;;;;;4976344;28;20495;-63
2021/11/26 09:31:49;;;;;;;52.83;31.37;;;4.20;99.90;;;;;;4976343;28;20482;-63
2021/11/26 09:34:16;;;;;;;53.40;32.20;;;4.60;99.90;;;;;;4979449;28;20439;-64
2021/11/26 09:36:44;;;;;;;49.93;30.67;;;4.80;99.90;;;;;;4985945;28;20455;-64
2021/11/26 09:39:10;;;;;;;47.17;29.67;;;5.20;99.90;;;;;;4981263;28;20455;-63
2021/11/26 09:41:37;;;;;;;52.73;33.90;;;5.30;99.90;;;;;;4978005;28;20483;-66
2021/11/26 09:44:07;;;;;;;52.83;33.20;;;5.50;99.90;;;;;;4980657;28;20488;-66
2021/11/26 09:46:37;;;;;;;51.70;31.70;;;5.30;99.90;;;;;;4980519;28;20462;-67
2021/11/26 09:49:05;;;;;;;55.27;33.10;;;5.10;99.90;;;;;;4976881;28;20481;-67
2021/11/26 09:51:32;;;;;;;56.20;33.30;;;4.80;99.90;;;;;;4976956;28;20475;-67
2021/11/26 09:54:00;;;;;;;58.53;34.07;;;4.50;99.90;;;;;;4978980;28;20478;-67
2021/11/26 09:56:28;;;;;;;63.53;34.90;;;4.30;99.90;;;;;;4976104;28;20458;-67
2021/11/26 09:58:54;;;;;;;61.57;37.43;;;4.10;99.90;;;;;;4976475;28;20455;-67
2021/11/26 10:01:21;;;;;;;62.27;36.73;;;3.90;99.90;;;;;;4975934;28;20494;-68
2021/11/26 10:03:50;;;;;;;60.83;36.37;;;3.90;99.90;;;;;;4975984;28;20479;-67
2021/11/26 10:06:22;;;;;;;62.07;37.03;;;3.90;99.90;;;;;;4975906;28;20458;-68
2021/11/26 10:09:07;;;;;;;63.87;37.33;;;3.90;99.90;;;;;;4976077;28;20443;-66
2021/11/26 10:11:38;;;;;;;58.80;37.00;;;4.00;99.90;;;;;;4975828;28;20475;-67
2021/11/26 10:14:17;;;;;;;58.07;32.90;;;4.00;99.90;;;;;;4975827;28;20447;-66
2021/11/26 10:16:45;;;;;;;56.43;32.13;;;4.00;99.90;;;;;;4975789;28;20807;-68
2021/11/26 10:19:13;;;;;;;58.90;35.43;;;3.90;99.90;;;;;;4975651;28;20482;-68
2021/11/26 10:21:40;;;;;;;67.10;33.53;;;3.90;99.90;;;;;;4975532;28;20498;-67
2021/11/26 10:24:15;;;;;;;56.50;33.33;;;4.00;99.90;;;;;;4975782;28;20479;-67
2021/11/26 10:26:50;;;;;;;52.60;30.20;;;4.10;99.90;;;;;;4975703;28;20470;-67
2021/11/26 10:29:27;;;;;;;55.13;33.27;;;4.10;99.90;;;;;;4975675;28;20500;-67
2021/11/26 10:32:04;;;;;;;58.27;31.83;;;4.20;99.90;;;;;;4975821;28;20837;-67
2021/11/26 10:34:30;;;;;;;57.20;33.33;;;4.20;99.90;;;;;;4975365;28;20435;-67
2021/11/26 10:36:57;;;;;;;53.07;30.70;;;4.10;99.90;;;;;;4975580;28;20514;-67
2021/11/26 10:39:27;;;;;;;49.97;29.83;;;4.20;99.90;;;;;;4975949;28;20942;-68
2021/11/26 10:41:59;;;;;;;48.03;30.47;;;4.30;99.90;;;;;;4975494;28;20590;-68
2021/11/26 10:44:37;;;;;;;53.80;30.97;;;4.30;99.90;;;;;;4975697;28;20471;-67
2021/11/26 10:47:12;;;;;;;55.00;33.70;;;4.30;99.90;;;;;;4978683;28;20440;-67
2021/11/26 10:49:47;;;;;;;58.23;34.30;;;4.30;99.90;;;;;;4976942;28;20438;-68
2021/11/26 10:57:59;;;;;;;54.97;32.20;;;4.10;99.90;;;;;;4976206;28;20498;-68
2021/11/26 11:00:26;;;;;;;57.43;33.27;;;4.20;99.90;;;;;;4975226;28;20447;-68
2021/11/26 11:02:58;;;;;;;48.50;29.40;;;4.20;99.90;;;;;;4975575;28;20547;-67
2021/11/26 11:05:29;;;;;;;52.20;31.67;;;4.10;99.90;;;;;;4975183;28;20514;-68
2021/11/26 11:07:56;;;;;;;59.57;32.10;;;4.00;99.90;;;;;;4975043;28;20446;-67
2021/11/26 11:10:31;;;;;;;55.30;32.20;;;4.00;99.90;;;;;;4974523;28;20947;-68
2021/11/26 11:13:00;;;;;;;53.80;34.70;;;4.00;99.90;;;;;;4974870;28;20449;-67
2021/11/26 11:15:27;;;;;;;55.27;34.20;;;4.00;99.90;;;;;;4975058;28;20450;-67
2021/11/26 11:17:54;;;;;;;56.80;33.77;;;4.10;99.90;;;;;;4975303;28;20466;-67
2021/11/26 11:20:23;;;;;;;59.90;35.83;;;4.00;99.90;;;;;;4974804;28;20513;-67
2021/11/26 11:22:50;;;;;;;57.47;34.50;;;4.00;99.90;;;;;;4975440;28;20455;-67
2021/11/26 11:25:24;;;;;;;53.03;31.00;;;4.00;99.90;;;;;;4976196;28;20850;-67
2021/11/26 11:27:53;;;;;;;54.60;32.70;;;4.00;99.90;;;;;;4975365;28;20514;-67
2021/11/26 11:30:20;;;;;;;52.50;28.57;;;4.00;99.90;;;;;;4974814;28;20466;-67
2021/11/26 11:32:47;;;;;;;54.17;32.17;;;4.00;99.90;;;;;;4974975;28;20455;-67
2021/11/26 11:35:15;;;;;;;55.33;33.33;;;4.10;99.90;;;;;;4975314;28;20447;-68
2021/11/26 11:37:42;;;;;;;55.73;32.23;;;4.20;99.90;;;;;;4975137;28;20507;-68
2021/11/26 11:40:10;;;;;;;49.93;30.47;;;4.30;99.90;;;;;;4974845;28;20969;-68
2021/11/26 11:42:39;;;;;;;50.73;29.83;;;4.30;99.90;;;;;;4975042;28;20475;-67
2021/11/26 11:45:11;;;;;;;46.50;30.63;;;4.30;99.90;;;;;;4974318;28;20939;-67
2021/11/26 11:47:44;;;;;;;51.13;30.23;;;4.40;99.90;;;;;;4975186;28;20506;-69
2021/11/26 11:50:15;;;;;;;52.07;30.73;;;4.50;99.90;;;;;;4974599;28;20912;-69
2021/11/26 11:52:45;;;;;;;53.47;33.07;;;4.50;99.90;;;;;;4974846;28;20451;-69
2021/11/26 11:55:32;;;;;;;52.43;29.63;;;4.60;99.90;;;;;;4974693;28;20479;-69
2021/11/26 11:58:10;;;;;;;53.87;30.60;;;4.60;99.90;;;;;;4976095;28;20439;-69
2021/11/26 12:00:40;;;;;;;47.20;31.27;;;4.70;99.90;;;;;;4978058;28;21037;-69
2021/11/26 12:03:10;;;;;;;51.63;28.70;;;4.70;99.90;;;;;;4978450;28;20439;-69
2021/11/26 12:05:37;;;;;;;50.40;31.97;;;4.70;99.90;;;;;;4978189;28;20486;-70
2021/11/26 12:08:11;;;;;;;49.73;28.17;;;4.70;99.90;;;;;;4978356;28;20459;-69
2021/11/26 12:10:49;;;;;;;48.27;27.50;;;4.80;99.90;;;;;;4978227;28;20582;-69
2021/11/26 12:13:21;;;;;;;51.03;29.30;;;4.70;99.90;;;;;;4979013;28;20438;-70
2021/11/26 12:15:51;;;;;;;46.23;27.93;;;4.70;99.90;;;;;;4977656;28;21032;-70
2021/11/26 12:18:19;;;;;;;45.23;29.00;;;4.70;99.90;;;;;;4977947;28;20521;-69
2021/11/26 12:20:48;;;;;;;48.83;27.40;;;4.70;99.90;;;;;;4977936;28;20479;-69
2021/11/26 12:23:21;;;;;;;47.27;27.33;;;4.70;99.90;;;;;;4978075;28;20958;-67
2021/11/26 12:26:08;;;;;;;47.87;28.43;;;4.60;99.90;;;;;;4978101;28;20503;-67
2021/11/26 12:28:45;;;;;;;49.70;29.80;;;4.60;99.90;;;;;;4978128;28;20439;-68
2021/11/26 12:31:13;;;;;;;50.20;29.63;;;4.70;99.90;;;;;;4977854;28;20574;-67
2021/11/26 12:33:41;;;;;;;51.00;29.40;;;4.60;99.90;;;;;;4978172;28;20866;-68
2021/11/26 12:36:10;;;;;;;51.00;28.87;;;4.60;99.90;;;;;;4977887;28;20466;-69
2021/11/26 12:38:39;;;;;;;50.10;28.97;;;4.50;99.90;;;;;;4977855;28;20510;-68
2021/11/26 12:41:06;;;;;;;53.83;30.80;;;4.50;99.90;;;;;;4977833;28;20497;-69
2021/11/26 12:43:44;;;;;;;50.90;28.80;;;4.40;99.90;;;;;;4978503;28;20462;-69
2021/11/26 12:46:28;;;;;;;53.63;30.60;;;4.50;99.90;;;;;;4977840;28;20458;-68
2021/11/26 12:49:10;;;;;;;47.90;30.70;;;4.70;99.90;;;;;;4978218;28;20440;-69
2021/11/26 12:51:37;;;;;;;54.93;31.03;;;4.80;99.90;;;;;;4978107;28;20479;-68
2021/11/26 12:54:05;;;;;;;50.93;29.57;;;4.70;99.90;;;;;;4978167;28;20494;-68
2021/11/26 12:56:33;;;;;;;51.83;29.57;;;4.60;99.90;;;;;;4978113;28;20466;-68
2021/11/26 12:59:00;;;;;;;49.57;29.27;;;4.60;99.90;;;;;;4991089;28;20969;-68
2021/11/26 13:01:31;;;;;;;48.50;28.73;;;4.70;99.90;;;;;;4989327;28;20490;-68
2021/11/26 13:03:58;;;;;;;57.33;30.20;;;4.70;99.90;;;;;;4978414;28;20439;-68
2021/11/26 13:06:28;;;;;;;48.27;28.73;;;4.80;99.90;;;;;;4978463;28;20526;-69
2021/11/26 13:09:00;;;;;;;48.23;29.67;;;4.90;99.90;;;;;;4977689;28;20443;-69
2021/11/26 13:11:27;;;;;;;58.23;30.30;;;5.10;99.90;;;;;;4977507;28;20497;-68
2021/11/26 13:14:02;;;;;;;51.87;30.10;;;5.20;99.90;;;;;;4977002;28;20509;-69
2021/11/26 13:16:31;;;;;;;43.87;27.43;;;5.30;99.90;;;;;;4977412;28;20439;-69
2021/11/26 13:18:57;;;;;;;46.40;28.00;;;5.20;99.90;;;;;;4978508;28;20917;-68
2021/11/26 13:21:24;;;;;;;45.20;27.03;;;5.20;99.90;;;;;;4977260;28;20476;-68
2021/11/26 13:23:51;;;;;;;39.23;25.00;;;5.30;99.90;;;;;;4976959;28;20482;-68
2021/11/26 13:26:18;;;;;;;46.27;27.17;;;5.30;99.90;;;;;;4977133;28;20479;-68
2021/11/26 13:28:49;;;;;;;42.77;24.50;;;5.30;99.90;;;;;;4977928;28;20592;-68
2021/11/26 13:31:18;;;;;;;40.77;25.43;;;5.20;99.90;;;;;;4977221;28;20541;-68
2021/11/26 13:33:48;;;;;;;38.50;23.20;;;5.10;99.90;;;;;;4977575;28;20585;-68
2021/11/26 13:36:17;;;;;;;37.80;22.40;;;5.00;99.90;;;;;;4977211;28;20807;-69
2021/11/26 13:38:47;;;;;;;39.17;22.40;;;5.00;99.90;;;;;;4977127;28;20538;-69
2021/11/26 13:41:18;;;;;;;35.70;21.20;;;5.00;99.90;;;;;;4977363;28;20502;-70
2021/11/26 13:43:48;;;;;;;34.43;22.23;;;5.00;99.90;;;;;;4977578;28;20499;-69
2021/11/26 13:46:21;;;;;;;38.33;22.90;;;5.00;99.90;;;;;;4976972;28;20467;-68
2021/11/26 13:48:52;;;;;;;36.57;21.73;;;5.00;99.90;;;;;;4979418;28;20443;-68
2021/11/26 13:51:22;;;;;;;33.33;20.87;;;5.10;99.90;;;;;;4976852;28;20479;-69
2021/11/26 13:53:51;;;;;;;32.50;22.83;;;5.10;99.90;;;;;;4978179;28;20979;-69
2021/11/26 13:56:18;;;;;;;30.70;22.00;;;5.20;99.90;;;;;;4977145;28;20485;-68
2021/11/26 13:58:53;;;;;;;33.20;21.60;;;5.30;99.90;;;;;;4977160;28;20455;-69
2021/11/26 14:01:25;;;;;;;28.57;18.93;;;5.40;99.90;;;;;;4976103;28;20545;-68
2021/11/26 14:03:58;;;;;;;31.53;18.90;;;5.40;99.90;;;;;;4976755;28;20465;-68
2021/11/26 14:06:25;;;;;;;25.00;17.00;;;5.50;99.90;;;;;;4976564;28;20463;-68
2021/11/26 14:08:57;;;;;;;28.37;16.73;;;5.50;99.90;;;;;;4976582;28;20805;-68
2021/11/26 14:11:36;;;;;;;28.30;18.77;;;5.50;99.90;;;;;;4976529;28;20479;-69
2021/11/26 14:14:05;;;;;;;26.07;17.27;;;5.50;99.90;;;;;;4976468;28;20447;-68
2021/11/26 14:16:32;;;;;;;29.47;17.30;;;5.40;99.90;;;;;;4976647;28;20854;-68
2021/11/26 14:19:02;;;;;;;26.83;16.43;;;5.40;99.90;;;;;;4976944;28;20474;-69
2021/11/26 14:21:31;;;;;;;29.67;18.00;;;5.40;99.90;;;;;;4975502;28;20486;-70
2021/11/26 14:24:00;;;;;;;25.57;17.27;;;5.40;99.90;;;;;;4976491;28;20513;-68
2021/11/26 14:26:29;;;;;;;25.03;16.93;;;5.50;99.90;;;;;;4977070;28;20463;-69
2021/11/26 14:29:08;;;;;;;24.70;17.30;;;5.40;99.90;;;;;;4981901;28;20436;-69
2021/11/26 14:31:37;;;;;;;23.00;16.80;;;5.40;99.90;;;;;;4985891;28;20486;-69
2021/11/26 14:34:07;;;;;;;26.27;16.47;;;5.40;99.90;;;;;;4976031;28;20444;-69
2021/11/26 14:36:34;;;;;;;26.20;16.67;;;5.40;99.90;;;;;;4976063;28;20447;-69
2021/11/26 14:39:03;;;;;;;22.60;15.30;;;5.20;99.90;;;;;;4975572;28;20509;-69
2021/11/26 14:41:30;;;;;;;22.10;14.70;;;5.20;99.90;;;;;;4975617;28;20485;-68
2021/11/26 14:44:06;;;;;;;24.93;14.90;;;5.30;99.90;;;;;;4975051;28;20968;-68
2021/11/26 14:46:32;;;;;;;23.67;15.43;;;5.30;99.90;;;;;;4975276;28;20565;-68
2021/11/26 14:49:00;;;;;;;19.63;14.63;;;5.30;99.90;;;;;;4975136;28;20954;-69
2021/11/26 14:51:32;;;;;;;20.27;14.70;;;5.30;99.90;;;;;;4975284;28;20985;-68
2021/11/26 14:54:01;;;;;;;21.83;15.63;;;5.30;99.90;;;;;;4975466;28;20454;-69
2021/11/26 14:56:28;;;;;;;21.00;15.00;;;5.30;99.90;;;;;;4975442;28;20971;-70
2021/11/26 14:58:57;;;;;;;23.17;15.27;;;5.30;99.90;;;;;;4975328;28;20443;-69
2021/11/26 15:01:26;;;;;;;16.30;12.97;;;5.40;99.90;;;;;;4975299;28;20483;-68
2021/11/26 15:03:53;;;;;;;16.43;11.37;;;5.40;99.90;;;;;;4975840;28;20462;-69
2021/11/26 15:06:20;;;;;;;19.63;11.67;;;5.40;99.90;;;;;;4975354;28;20629;-68
2021/11/26 15:08:48;;;;;;;13.70;9.70;;;5.30;99.90;;;;;;4975453;28;20446;-68
2021/11/26 15:11:15;;;;;;;13.50;10.00;;;5.30;99.90;;;;;;4975295;28;20474;-68
2021/11/26 15:13:42;;;;;;;11.77;9.33;;;5.10;99.90;;;;;;4975328;28;20459;-68
2021/11/26 15:16:09;;;;;;;11.73;8.60;;;5.10;99.90;;;;;;4975290;28;20451;-68
2021/11/26 15:18:36;;;;;;;9.70;6.83;;;5.10;99.90;;;;;;4975164;28;20458;-68
2021/11/26 15:21:03;;;;;;;8.73;6.40;;;5.00;99.90;;;;;;4975029;28;20483;-67
2021/11/26 15:23:30;;;;;;;10.40;8.07;;;4.90;99.90;;;;;;4975129;28;20505;-68
2021/11/26 15:25:58;;;;;;;9.27;7.00;;;4.90;99.90;;;;;;4975184;28;20538;-68
2021/11/26 15:28:25;;;;;;;11.53;7.67;;;4.90;99.90;;;;;;4975021;28;20455;-70
2021/11/26 15:30:52;;;;;;;12.80;7.60;;;4.90;99.90;;;;;;4975131;28;20533;-69
2021/11/26 15:33:20;;;;;;;11.77;7.70;;;4.90;99.90;;;;;;4977017;28;20462;-68
2021/11/26 15:35:47;;;;;;;15.43;8.33;;;4.90;99.90;;;;;;4978994;28;20455;-68
2021/11/26 15:38:14;;;;;;;11.80;8.00;;;4.90;99.90;;;;;;4979144;28;20455;-69
2021/11/26 15:40:41;;;;;;;10.03;8.17;;;5.00;99.90;;;;;;4978547;28;20478;-69
2021/11/26 15:43:09;;;;;;;9.43;7.30;;;5.00;99.90;;;;;;4978482;28;20506;-68
2021/11/26 15:45:36;;;;;;;7.87;7.07;;;5.00;99.90;;;;;;4978344;28;20994;-68
2021/11/26 15:48:02;;;;;;;11.30;7.20;;;5.00;99.90;;;;;;4978797;28;20485;-68
2021/11/26 15:50:29;;;;;;;9.23;7.37;;;5.00;99.90;;;;;;4978368;28;20941;-67
2021/11/26 15:52:56;;;;;;;10.77;7.70;;;5.00;99.90;;;;;;4978455;28;20860;-69
2021/11/26 15:55:23;;;;;;;12.33;9.00;;;4.90;99.90;;;;;;4978738;28;20927;-69
2021/11/26 15:57:50;;;;;;;10.17;8.47;;;4.90;99.90;;;;;;4978420;28;20463;-70
2021/11/26 16:00:18;;;;;;;7.27;6.57;;;4.80;99.90;;;;;;4979633;28;20470;-68
2021/11/26 16:02:47;;;;;;;9.30;6.90;;;4.80;99.90;;;;;;4979744;28;20439;-68
2021/11/26 16:05:14;;;;;;;11.03;8.03;;;4.70;99.90;;;;;;4978373;28;20487;-69
2021/11/26 16:07:41;;;;;;;8.57;7.60;;;4.70;99.90;;;;;;4978224;28;20455;-68
2021/11/26 16:10:09;;;;;;;10.80;7.77;;;4.70;99.90;;;;;;4978744;28;20450;-68
2021/11/26 16:12:36;;;;;;;10.00;8.53;;;4.70;99.90;;;;;;4978489;28;20910;-68
2021/11/26 16:15:04;;;;;;;12.67;7.40;;;4.80;99.90;;;;;;4978615;28;20451;-69
2021/11/26 16:17:33;;;;;;;9.73;7.70;;;4.80;99.90;;;;;;4978236;28;20455;-69
2021/11/26 16:19:59;;;;;;;10.30;8.80;;;4.80;99.90;;;;;;4978029;28;20949;-69
2021/11/26 16:22:26;;;;;;;9.30;8.10;;;4.90;99.90;;;;;;4978218;28;20474;-69
2021/11/26 16:24:53;;;;;;;9.77;8.67;;;4.90;99.90;;;;;;4978484;28;20451;-69
2021/11/26 16:27:23;;;;;;;9.80;8.80;;;4.80;99.90;;;;;;4978201;28;20483;-69
2021/11/26 16:29:51;;;;;;;13.90;8.50;;;4.90;99.90;;;;;;4978956;28;20447;-69
2021/11/26 16:32:23;;;;;;;12.20;8.57;;;4.80;99.90;;;;;;4978449;28;20507;-69
2021/11/26 16:34:53;;;;;;;11.73;8.80;;;4.80;99.90;;;;;;4978702;28;20443;-69
2021/11/26 16:37:21;;;;;;;11.93;9.07;;;4.80;99.90;;;;;;4978004;28;20506;-69
2021/11/26 16:39:49;;;;;;;13.33;8.43;;;4.70;99.90;;;;;;4977583;28;21005;-70
2021/11/26 16:42:18;;;;;;;12.80;8.93;;;4.70;99.90;;;;;;4977754;28;20489;-70
2021/11/26 16:44:45;;;;;;;10.07;8.77;;;4.70;99.90;;;;;;4976835;28;20451;-71
2021/11/26 16:47:12;;;;;;;9.87;8.60;;;4.70;99.90;;;;;;4977932;28;20487;-70
2021/11/26 16:49:39;;;;;;;12.30;9.10;;;4.70;99.90;;;;;;4977867;28;20462;-70
2021/11/26 16:52:10;;;;;;;12.30;9.53;;;4.70;99.90;;;;;;4978413;28;20533;-70
2021/11/26 16:54:39;;;;;;;14.53;10.20;;;4.70;99.90;;;;;;4977910;28;20459;-70
2021/11/26 16:57:06;;;;;;;19.87;9.80;;;4.70;99.90;;;;;;4977572;28;20969;-70
2021/11/26 16:59:33;;;;;;;12.93;9.90;;;4.70;99.90;;;;;;4977580;28;20455;-70
2021/11/26 17:02:01;;;;;;;11.43;8.70;;;4.70;99.90;;;;;;4977285;28;20529;-70
2021/11/26 17:04:27;;;;;;;11.80;8.70;;;4.70;99.90;;;;;;4977429;28;20491;-70
2021/11/26 17:06:55;;;;;;;14.00;10.17;;;4.70;99.90;;;;;;4977345;28;20475;-70
2021/11/26 17:09:23;;;;;;;12.10;9.57;;;4.60;99.90;;;;;;4977337;28;20531;-70
2021/11/26 17:11:50;;;;;;;12.43;9.47;;;4.60;99.90;;;;;;4977192;28;20998;-70
2021/11/26 17:14:17;;;;;;;10.70;8.57;;;4.60;99.90;;;;;;4977422;28;20459;-71
2021/11/26 17:16:44;;;;;;;14.30;9.97;;;4.50;99.90;;;;;;4976907;28;20997;-70
2021/11/26 17:19:11;;;;;;;14.07;10.23;;;4.60;99.90;;;;;;4977123;28;20455;-70
2021/11/26 17:21:38;;;;;;;12.60;9.77;;;4.60;99.90;;;;;;4976907;28;20882;-70
2021/11/26 17:24:05;;;;;;;12.77;9.77;;;4.60;99.90;;;;;;4992750;28;20493;-70
2021/11/26 17:26:33;;;;;;;13.50;8.93;;;4.60;99.90;;;;;;4984875;28;20514;-70
2021/11/26 17:29:00;;;;;;;17.03;12.17;;;4.60;99.90;;;;;;4977193;28;20534;-70
2021/11/26 17:31:27;;;;;;;11.50;9.07;;;4.70;99.90;;;;;;4976382;28;20966;-70
2021/11/26 17:33:54;;;;;;;14.93;10.20;;;4.70;99.90;;;;;;4977578;28;20455;-70
2021/11/26 17:36:21;;;;;;;10.57;8.93;;;4.70;99.90;;;;;;4976604;28;20496;-70
2021/11/26 17:38:52;;;;;;;15.47;10.80;;;4.60;99.90;;;;;;4976720;28;20490;-67
2021/11/26 17:41:20;;;;;;;14.20;11.23;;;4.60;99.90;;;;;;4976680;28;20530;-67
2021/11/26 17:43:49;;;;;;;12.30;8.67;;;4.60;99.90;;;;;;4977079;28;20513;-67
2021/11/26 17:46:15;;;;;;;13.00;8.60;;;4.50;99.90;;;;;;4976685;28;20485;-67
2021/11/26 17:48:42;;;;;;;11.70;8.53;;;4.40;99.90;;;;;;4976411;28;20923;-68
2021/11/26 17:51:09;;;;;;;9.70;7.93;;;4.40;99.90;;;;;;4976709;28;20891;-67